Terminal Aerodrome Forecast
Issued by NWS

Home | Current Version | Previous Version | Text Only | Print | Product List | Glossary On
Versions: 1 2 3 4 5 6 7 8 9 10 11 12 13 14
000
FTUS44 KEPZ 042327
TAFTCS
TAF
KTCS 042327Z 0500/0524 VRB05KT P6SM VCSH SCT080 BKN100 OVC150
      TEMPO 0500/0504 -SHRA BKN080 OVC100
     FM050400 31007KT P6SM VCSH BKN100 BKN200
     FM051900 20013KT P6SM SCT100 BKN150=

USA.gov is the U.S. government's official web portal to all federal, state and local government web resources and services.